Darstellungsparameter: Aktuell verwendete Einstellungen:
Skalierung der Graphiken ... ?
xyx+y,   Skalierungsfaktor:      Skalierung: Modus: x, Faktor: 1
Darstellungszeitraum ... ?
Vom - - bis: - -   Zeitraum: 07.06.2014 - 07.06.2014
Min/Max/Avg-Anzeige ... ?
Zeige MMA aktuell
Zeige MMA Monat
Zeige MMA alles
Zeige --A aktuell
Zeige --A Monat
Zeige --A alles
Keine MMA-Anzeige
MMA:
Keine MMA-Graphiken
MMA-Basis: 07.06.2014 - 07.06.2014
Quicknavigation für Darstellung... ?
Tage:      1T, 2T, 3T, 5T -1T -2T -3T -5T +1T +2T +3T +5T
Wochen: 1W, 2W, 3W -1W -2W -3W +1W +2W +3W
Monate: 1M, 3M, 6M -1M -3M -6M +1M +3M +6M
Jahre:    1J, 3J, 5J, 10J -1J -3J -5J -10J +1J +3J +5J +10J
Nutze für die Darstellung ... ?
Originaldaten oder Mittelwerte auf ...
Stundenbasis Tagesbasis Wochenbasis
Monatsbasis Jahresbasis      Datenbasis: Original-Daten
Darstellen als:
Statistik (Auto) Statistik J:M      Darstellung:
Zur Graphik,    zurück zur Übersicht aller Sensoren.
 
Tabellarische Datenbersicht: ?
 
Sensor: Nr:Datum:Temp:Abs-Feuchte:Windchill:Wind:
Aussen-T/F 1 07-06-2014 00:00:00 16.5 C 10.81 g/m*3 16.5 C 0 km/h
2 07-06-2014 00:05:00 16.4 C 10.47 g/m*3 16.4 C 0 km/h
3 07-06-2014 00:10:00 16.4 C 10.47 g/m*3 16.4 C 0 km/h
4 07-06-2014 00:15:00 16.3 C 10.54 g/m*3 16.3 C 0 km/h
5 07-06-2014 00:20:00 16.2 C 10.48 g/m*3 16.2 C 3.2 km/h
6 07-06-2014 00:25:00 16.1 C 10.55 g/m*3 16.1 C 1.6 km/h
7 07-06-2014 00:30:00 15.9 C 10.43 g/m*3 15.9 C 0 km/h
8 07-06-2014 00:35:00 15.8 C 10.5 g/m*3 15.8 C 0 km/h
9 07-06-2014 00:40:00 15.7 C 10.57 g/m*3 15.7 C 0 km/h
10 07-06-2014 00:45:00 15.6 C 10.64 g/m*3 15.6 C 0 km/h
11 07-06-2014 00:50:00 15.4 C 10.38 g/m*3 15.4 C 0 km/h
12 07-06-2014 00:55:00 15.2 C 10.38 g/m*3 15.2 C 0 km/h
13 07-06-2014 01:00:00 15.2 C 10.38 g/m*3 15.2 C 0 km/h
14 07-06-2014 01:05:00 15.1 C 10.45 g/m*3 15.1 C 0 km/h
15 07-06-2014 01:10:00 15.1 C 10.45 g/m*3 15.1 C 0 km/h
16 07-06-2014 01:15:00 14.9 C 10.32 g/m*3 14.9 C 0 km/h
17 07-06-2014 01:20:00 14.9 C 10.32 g/m*3 14.9 C 0 km/h
18 07-06-2014 01:25:00 14.8 C 10.39 g/m*3 14.8 C 0 km/h
19 07-06-2014 01:30:00 14.8 C 10.39 g/m*3 14.8 C 0 km/h
20 07-06-2014 01:35:00 14.6 C 10.26 g/m*3 14.6 C 0 km/h
21 07-06-2014 01:40:00 14.5 C 10.32 g/m*3 14.5 C 0 km/h
22 07-06-2014 01:45:00 14.4 C 10.26 g/m*3 14.4 C 0 km/h
23 07-06-2014 01:50:00 14.2 C 10.01 g/m*3 14.2 C 0 km/h
24 07-06-2014 01:55:00 14.1 C 9.95 g/m*3 14.1 C 0 km/h
25 07-06-2014 02:00:00 14.1 C 10.07 g/m*3 14.1 C 0 km/h
Sensor: Nr:Datum:Temp:Abs-Feuchte:Windchill:Wind:
Aussen-T/F 26 07-06-2014 02:05:00 14 C 10.01 g/m*3 14 C 0 km/h
27 07-06-2014 02:10:00 14 C 10.01 g/m*3 14 C 0 km/h
28 07-06-2014 02:15:00 14 C 10.13 g/m*3 14 C 0 km/h
29 07-06-2014 02:20:00 14 C 10.01 g/m*3 14 C 0 km/h
30 07-06-2014 02:25:00 14 C 10.01 g/m*3 14 C 0 km/h
31 07-06-2014 02:30:00 14 C 10.01 g/m*3 14 C 0 km/h
32 07-06-2014 02:35:00 13.9 C 9.95 g/m*3 13.9 C 0 km/h
33 07-06-2014 02:40:00 13.8 C 10.01 g/m*3 13.8 C 0 km/h
34 07-06-2014 02:45:00 13.7 C 9.95 g/m*3 13.7 C 0 km/h
35 07-06-2014 02:50:00 13.7 C 9.95 g/m*3 13.7 C 0 km/h
36 07-06-2014 02:55:00 13.6 C 10 g/m*3 13.6 C 0 km/h
37 07-06-2014 03:00:00 13.5 C 9.94 g/m*3 13.5 C 0 km/h
38 07-06-2014 03:05:00 13.4 C 9.88 g/m*3 13.4 C 0 km/h
39 07-06-2014 03:10:00 13.4 C 9.88 g/m*3 13.4 C 0 km/h
40 07-06-2014 03:15:00 13.3 C 9.94 g/m*3 13.3 C 0 km/h
41 07-06-2014 03:20:00 13.3 C 9.94 g/m*3 13.3 C 0 km/h
42 07-06-2014 03:25:00 13.2 C 9.87 g/m*3 13.2 C 0 km/h
43 07-06-2014 03:30:00 13.1 C 9.81 g/m*3 13.1 C 0 km/h
44 07-06-2014 03:35:00 12.9 C 9.81 g/m*3 12.9 C 0 km/h
45 07-06-2014 03:40:00 12.9 C 9.81 g/m*3 12.9 C 0 km/h
46 07-06-2014 03:45:00 12.8 C 9.74 g/m*3 12.8 C 0 km/h
47 07-06-2014 03:50:00 12.8 C 9.74 g/m*3 12.8 C 0 km/h
48 07-06-2014 03:55:00 12.8 C 9.74 g/m*3 12.8 C 0 km/h
49 07-06-2014 04:00:00 12.7 C 9.68 g/m*3 12.7 C 0 km/h
50 07-06-2014 04:05:00 12.7 C 9.68 g/m*3 12.7 C 0 km/h
Sensor: Nr:Datum:Temp:Abs-Feuchte:Windchill:Wind:
Aussen-T/F 51 07-06-2014 04:10:00 12.7 C 9.8 g/m*3 12.7 C 0 km/h
52 07-06-2014 04:15:00 12.6 C 9.74 g/m*3 12.6 C 0 km/h
53 07-06-2014 04:20:00 12.5 C 9.68 g/m*3 12.5 C 0 km/h
54 07-06-2014 04:25:00 12.4 C 9.72 g/m*3 12.4 C 0 km/h
55 07-06-2014 04:30:00 12.4 C 9.72 g/m*3 12.4 C 0 km/h
56 07-06-2014 04:35:00 12.3 C 9.77 g/m*3 12.3 C 0 km/h
57 07-06-2014 04:40:00 12.3 C 9.66 g/m*3 12.3 C 0 km/h
58 07-06-2014 04:45:00 12.3 C 9.66 g/m*3 12.3 C 0 km/h
59 07-06-2014 04:50:00 12.2 C 9.6 g/m*3 12.2 C 0 km/h
60 07-06-2014 04:55:00 12.2 C 9.6 g/m*3 12.2 C 0 km/h
61 07-06-2014 05:00:00 12.2 C 9.6 g/m*3 12.2 C 0 km/h
62 07-06-2014 05:05:00 12.2 C 9.71 g/m*3 12.2 C 0 km/h
63 07-06-2014 05:10:00 12.1 C 9.65 g/m*3 12.1 C 0 km/h
64 07-06-2014 05:15:00 12.1 C 9.65 g/m*3 12.1 C 0 km/h
65 07-06-2014 05:20:00 12.1 C 9.65 g/m*3 12.1 C 0 km/h
66 07-06-2014 05:25:00 12.1 C 9.76 g/m*3 12.1 C 0 km/h
67 07-06-2014 05:30:00 12.1 C 9.76 g/m*3 12.1 C 0 km/h
68 07-06-2014 05:35:00 12.1 C 9.76 g/m*3 12.1 C 0 km/h
69 07-06-2014 05:40:00 12 C 9.7 g/m*3 12 C 0 km/h
70 07-06-2014 05:45:00 12 C 9.7 g/m*3 12 C 0 km/h
71 07-06-2014 05:50:00 12 C 9.7 g/m*3 12 C 0 km/h
72 07-06-2014 05:55:00 12.1 C 9.76 g/m*3 12.1 C 0 km/h
73 07-06-2014 06:00:00 12.1 C 9.76 g/m*3 12.1 C 0 km/h
74 07-06-2014 06:05:00 12.1 C 9.76 g/m*3 12.1 C 0 km/h
75 07-06-2014 06:10:00 12.2 C 9.82 g/m*3 12.2 C 0 km/h
Sensor: Nr:Datum:Temp:Abs-Feuchte:Windchill:Wind:
Aussen-T/F 76 07-06-2014 06:15:00 12.2 C 9.82 g/m*3 12.2 C 0 km/h
77 07-06-2014 06:20:00 12.2 C 9.82 g/m*3 12.2 C 0 km/h
78 07-06-2014 06:25:00 12.2 C 9.82 g/m*3 12.2 C 0 km/h
79 07-06-2014 06:30:00 12.2 C 9.93 g/m*3 12.2 C 0 km/h
80 07-06-2014 06:35:00 12.2 C 9.93 g/m*3 12.2 C 0 km/h
81 07-06-2014 06:40:00 12.2 C 9.93 g/m*3 12.2 C 0 km/h
82 07-06-2014 06:45:00 12.3 C 9.99 g/m*3 12.3 C 0 km/h
83 07-06-2014 06:50:00 12.3 C 9.99 g/m*3 12.3 C 0 km/h
84 07-06-2014 06:55:00 12.4 C 10.05 g/m*3 12.4 C 0 km/h
85 07-06-2014 07:00:00 12.6 C 10.18 g/m*3 12.6 C 0 km/h
86 07-06-2014 07:05:00 12.7 C 10.24 g/m*3 12.7 C 0 km/h
87 07-06-2014 07:10:00 12.8 C 10.19 g/m*3 12.8 C 0 km/h
88 07-06-2014 07:15:00 12.9 C 10.26 g/m*3 12.9 C 0 km/h
89 07-06-2014 07:20:00 13.1 C 10.38 g/m*3 13.1 C 0 km/h
90 07-06-2014 07:25:00 13.1 C 10.27 g/m*3 13.1 C 0 km/h
91 07-06-2014 07:30:00 13.2 C 10.33 g/m*3 13.2 C 0 km/h
92 07-06-2014 07:35:00 13.3 C 10.4 g/m*3 13.3 C 0 km/h
93 07-06-2014 07:40:00 13.4 C 10.46 g/m*3 13.4 C 0 km/h
94 07-06-2014 07:45:00 13.6 C 10.71 g/m*3 13.6 C 0 km/h
95 07-06-2014 07:50:00 13.8 C 10.72 g/m*3 13.8 C 0 km/h
96 07-06-2014 07:55:00 14.1 C 10.68 g/m*3 14.1 C 1.6 km/h
97 07-06-2014 08:00:00 14.4 C 10.88 g/m*3 14.4 C 0 km/h
98 07-06-2014 08:05:00 14.6 C 10.89 g/m*3 14.6 C 0 km/h
99 07-06-2014 08:10:00 14.9 C 11.09 g/m*3 14.9 C 0 km/h
100 07-06-2014 08:15:00 15.2 C 11.16 g/m*3 15.2 C 0 km/h
Sensor: Nr:Datum:Temp:Abs-Feuchte:Windchill:Wind:
Aussen-T/F 101 07-06-2014 08:20:00 15.6 C 11.17 g/m*3 15.6 C 0 km/h
102 07-06-2014 08:25:00 15.8 C 11.31 g/m*3 15.8 C 0 km/h
103 07-06-2014 08:30:00 16.1 C 11.38 g/m*3 16.1 C 0 km/h
104 07-06-2014 08:35:00 16.3 C 11.52 g/m*3 16.3 C 0 km/h
105 07-06-2014 08:40:00 16.4 C 11.45 g/m*3 16.4 C 0 km/h
106 07-06-2014 08:45:00 16.7 C 11.51 g/m*3 16.7 C 0 km/h
107 07-06-2014 08:50:00 16.8 C 11.58 g/m*3 16.8 C 0 km/h
108 07-06-2014 08:55:00 17.1 C 11.65 g/m*3 17.1 C 0 km/h
109 07-06-2014 09:00:00 17.3 C 11.93 g/m*3 17.3 C 1.6 km/h
110 07-06-2014 09:05:00 17.5 C 11.78 g/m*3 17.5 C 0 km/h
111 07-06-2014 09:10:00 17.7 C 11.92 g/m*3 17.7 C 0 km/h
112 07-06-2014 09:15:00 17.4 C 11.86 g/m*3 17.4 C 0 km/h
113 07-06-2014 09:20:00 17.4 C 11.86 g/m*3 17.4 C 0 km/h
114 07-06-2014 09:25:00 17.4 C 12 g/m*3 17.4 C 0 km/h
115 07-06-2014 09:30:00 17.3 C 12.08 g/m*3 17.3 C 0 km/h
116 07-06-2014 09:35:00 17.2 C 12.01 g/m*3 17.2 C 0 km/h
117 07-06-2014 09:40:00 17.3 C 12.08 g/m*3 17.3 C 0 km/h
118 07-06-2014 09:45:00 17.4 C 12.3 g/m*3 17.4 C 0 km/h
119 07-06-2014 09:50:00 17.6 C 12.45 g/m*3 17.6 C 0 km/h
120 07-06-2014 09:55:00 18 C 12.59 g/m*3 18 C 0 km/h
121 07-06-2014 10:00:00 18.4 C 12.74 g/m*3 18.4 C 0 km/h
122 07-06-2014 10:05:00 18.9 C 12.96 g/m*3 18.9 C 0 km/h
123 07-06-2014 10:10:00 19.3 C 13.1 g/m*3 19.3 C 0 km/h
124 07-06-2014 10:15:00 19.8 C 13.32 g/m*3 19.8 C 0 km/h
125 07-06-2014 10:20:00 20 C 13.48 g/m*3 20 C 0 km/h
Sensor: Nr:Datum:Temp:Abs-Feuchte:Windchill:Wind:
Aussen-T/F 126 07-06-2014 10:25:00 20.4 C 13.44 g/m*3 20.4 C 0 km/h
127 07-06-2014 10:30:00 20.6 C 13.42 g/m*3 20.6 C 0 km/h
128 07-06-2014 10:35:00 20.8 C 13.76 g/m*3 20.8 C 0 km/h
129 07-06-2014 10:40:00 21.1 C 13.82 g/m*3 21.1 C 0 km/h
130 07-06-2014 10:45:00 21.4 C 13.87 g/m*3 21.4 C 0 km/h
131 07-06-2014 10:50:00 21.4 C 14.25 g/m*3 21.4 C 0 km/h
132 07-06-2014 10:55:00 21.6 C 14.41 g/m*3 21.6 C 0 km/h
133 07-06-2014 11:00:00 21.8 C 14.2 g/m*3 21.8 C 1.6 km/h
134 07-06-2014 11:05:00 21.8 C 14.58 g/m*3 21.8 C 0 km/h
135 07-06-2014 11:10:00 22.1 C 14.64 g/m*3 22.1 C 1.6 km/h
136 07-06-2014 11:15:00 22.9 C 14.31 g/m*3 22.9 C 3.2 km/h
137 07-06-2014 11:20:00 23.8 C 14.84 g/m*3 23.8 C 4.8 km/h
138 07-06-2014 11:25:00 24.2 C 15.18 g/m*3 24.2 C 1.6 km/h
139 07-06-2014 11:30:00 24.8 C 13.88 g/m*3 24.8 C 4.8 km/h
140 07-06-2014 11:35:00 25.4 C 13.42 g/m*3 25.4 C 6.4 km/h
141 07-06-2014 11:40:00 26.2 C 13.05 g/m*3 26.2 C 9.7 km/h
142 07-06-2014 11:45:00 26.9 C 14.08 g/m*3 26.9 C 8.1 km/h
143 07-06-2014 11:50:00 27.4 C 13.16 g/m*3 27.4 C 1.6 km/h
144 07-06-2014 11:55:00 27.7 C 13.37 g/m*3 27.7 C 3.2 km/h
145 07-06-2014 12:00:00 27.8 C 13.99 g/m*3 27.8 C 4.8 km/h
146 07-06-2014 12:05:00 28.1 C 13.4 g/m*3 28.1 C 8.1 km/h
147 07-06-2014 12:10:00 28.7 C 14.69 g/m*3 28.7 C 8.1 km/h
148 07-06-2014 12:15:00 28.8 C 12.79 g/m*3 28.8 C 4.8 km/h
149 07-06-2014 12:20:00 28.7 C 14.13 g/m*3 28.7 C 4.8 km/h
150 07-06-2014 12:25:00 28.5 C 13.42 g/m*3 28.5 C 4.8 km/h
Sensor: Nr:Datum:Temp:Abs-Feuchte:Windchill:Wind:
Aussen-T/F 151 07-06-2014 12:30:00 28.5 C 12.58 g/m*3 28.5 C 6.4 km/h
152 07-06-2014 12:35:00 28.6 C 12.93 g/m*3 28.6 C 6.4 km/h
153 07-06-2014 12:40:00 28.7 C 12.72 g/m*3 28.7 C 6.4 km/h
154 07-06-2014 12:45:00 28.9 C 14.57 g/m*3 28.9 C 6.4 km/h
155 07-06-2014 12:50:00 29.1 C 12.71 g/m*3 29.1 C 4.8 km/h
156 07-06-2014 12:55:00 29.2 C 13.94 g/m*3 29.2 C 6.4 km/h
157 07-06-2014 13:00:00 29.2 C 12.2 g/m*3 29.2 C 6.4 km/h
158 07-06-2014 13:05:00 29.2 C 13.36 g/m*3 29.2 C 4.8 km/h
159 07-06-2014 13:10:00 29.3 C 14.31 g/m*3 29.3 C 3.2 km/h
160 07-06-2014 13:15:00 29.4 C 13.8 g/m*3 29.4 C 8.1 km/h
161 07-06-2014 13:20:00 29.6 C 12.46 g/m*3 29.6 C 8.1 km/h
162 07-06-2014 13:25:00 29.8 C 13.2 g/m*3 29.8 C 4.8 km/h
163 07-06-2014 13:30:00 30.1 C 12.5 g/m*3 30.1 C 4.8 km/h
164 07-06-2014 13:35:00 30.3 C 12.94 g/m*3 30.3 C 3.2 km/h
165 07-06-2014 13:40:00 30.2 C 15.02 g/m*3 30.2 C 8.1 km/h
166 07-06-2014 13:45:00 30.4 C 13.94 g/m*3 30.4 C 8.1 km/h
167 07-06-2014 13:50:00 30.3 C 12.33 g/m*3 30.3 C 8.1 km/h
168 07-06-2014 13:55:00 30.1 C 12.81 g/m*3 30.1 C 8.1 km/h
169 07-06-2014 14:00:00 30.2 C 12.57 g/m*3 30.2 C 6.4 km/h
170 07-06-2014 14:05:00 30.3 C 13.25 g/m*3 30.3 C 3.2 km/h
171 07-06-2014 14:10:00 30.4 C 12.7 g/m*3 30.4 C 9.7 km/h
172 07-06-2014 14:15:00 30.6 C 12.53 g/m*3 30.6 C 3.2 km/h
173 07-06-2014 14:20:00 30.6 C 13.47 g/m*3 30.6 C 11.3 km/h
174 07-06-2014 14:25:00 30.7 C 12.91 g/m*3 30.7 C 9.7 km/h
175 07-06-2014 14:30:00 30.7 C 11.34 g/m*3 30.7 C 6.4 km/h
Sensor: Nr:Datum:Temp:Abs-Feuchte:Windchill:Wind:
Aussen-T/F 176 07-06-2014 14:35:00 30.7 C 11.34 g/m*3 30.7 C 8.1 km/h
177 07-06-2014 14:40:00 30.9 C 11.78 g/m*3 30.9 C 9.7 km/h
178 07-06-2014 14:45:00 30.9 C 13.37 g/m*3 30.9 C 6.4 km/h
179 07-06-2014 14:50:00 30.7 C 15.12 g/m*3 30.7 C 4.8 km/h
180 07-06-2014 14:55:00 30.6 C 12.53 g/m*3 30.6 C 4.8 km/h
181 07-06-2014 15:00:00 30.8 C 13.3 g/m*3 30.8 C 8.1 km/h
182 07-06-2014 15:05:00 31.1 C 12.87 g/m*3 31.1 C 6.4 km/h
183 07-06-2014 15:10:00 31.1 C 11.26 g/m*3 31.1 C 11.3 km/h
184 07-06-2014 15:15:00 31.1 C 12.23 g/m*3 31.1 C 4.8 km/h
185 07-06-2014 15:20:00 31.2 C 11.97 g/m*3 31.2 C 1.6 km/h
186 07-06-2014 15:25:00 31.3 C 12.03 g/m*3 31.3 C 4.8 km/h
187 07-06-2014 15:30:00 31.3 C 12.68 g/m*3 31.3 C 1.6 km/h
188 07-06-2014 15:35:00 31.1 C 14.48 g/m*3 31.1 C 1.6 km/h
189 07-06-2014 15:40:00 30.6 C 13.78 g/m*3 30.6 C 3.2 km/h
190 07-06-2014 15:45:00 30.5 C 12.46 g/m*3 30.5 C 3.2 km/h
191 07-06-2014 15:50:00 30.5 C 13.4 g/m*3 30.5 C 4.8 km/h
192 07-06-2014 15:55:00 30.1 C 15.24 g/m*3 30.1 C 4.8 km/h
193 07-06-2014 16:00:00 29.3 C 14.6 g/m*3 29.3 C 4.8 km/h
194 07-06-2014 16:05:00 28.8 C 15.63 g/m*3 28.8 C 3.2 km/h
195 07-06-2014 16:10:00 28.6 C 15.46 g/m*3 28.6 C 1.6 km/h
196 07-06-2014 16:15:00 28.2 C 15.95 g/m*3 28.2 C 0 km/h
197 07-06-2014 16:20:00 27.8 C 16.14 g/m*3 27.8 C 1.6 km/h
198 07-06-2014 16:25:00 27.8 C 16.41 g/m*3 27.8 C 1.6 km/h
199 07-06-2014 16:30:00 27.8 C 16.41 g/m*3 27.8 C 1.6 km/h
200 07-06-2014 16:35:00 27.7 C 16.58 g/m*3 27.7 C 0 km/h
Sensor: Nr:Datum:Temp:Abs-Feuchte:Windchill:Wind:
Aussen-T/F 201 07-06-2014 16:40:00 27.4 C 16.31 g/m*3 27.4 C 1.6 km/h
202 07-06-2014 16:45:00 27.2 C 16.39 g/m*3 27.2 C 1.6 km/h
203 07-06-2014 16:50:00 26.9 C 16.64 g/m*3 26.9 C 1.6 km/h
204 07-06-2014 16:55:00 26.7 C 16.45 g/m*3 26.7 C 0 km/h
205 07-06-2014 17:00:00 26.4 C 16.18 g/m*3 26.4 C 0 km/h
206 07-06-2014 17:05:00 26.3 C 16.59 g/m*3 26.3 C 0 km/h
207 07-06-2014 17:10:00 26.1 C 16.65 g/m*3 26.1 C 0 km/h
208 07-06-2014 17:15:00 25.8 C 16.37 g/m*3 25.8 C 0 km/h
209 07-06-2014 17:20:00 25.6 C 16.43 g/m*3 25.6 C 1.6 km/h
210 07-06-2014 17:25:00 25.4 C 16.48 g/m*3 25.4 C 1.6 km/h
211 07-06-2014 17:30:00 25.2 C 16.3 g/m*3 25.2 C 1.6 km/h
212 07-06-2014 17:35:00 25.1 C 15.97 g/m*3 25.1 C 0 km/h
213 07-06-2014 17:40:00 25 C 16.34 g/m*3 25 C 0 km/h
214 07-06-2014 17:45:00 24.9 C 16.02 g/m*3 24.9 C 0 km/h
215 07-06-2014 17:50:00 24.9 C 16.25 g/m*3 24.9 C 0 km/h
216 07-06-2014 17:55:00 25.1 C 16.67 g/m*3 25.1 C 0 km/h
217 07-06-2014 18:00:00 25.5 C 17.05 g/m*3 25.5 C 0 km/h
218 07-06-2014 18:05:00 25.9 C 17.43 g/m*3 25.9 C 1.6 km/h
219 07-06-2014 18:10:00 26.5 C 17.52 g/m*3 26.5 C 0 km/h
220 07-06-2014 18:15:00 26.6 C 17.12 g/m*3 26.6 C 1.6 km/h
221 07-06-2014 18:20:00 26.4 C 17.43 g/m*3 26.4 C 3.2 km/h
222 07-06-2014 18:25:00 26.5 C 17.52 g/m*3 26.5 C 0 km/h
223 07-06-2014 18:30:00 26.8 C 17.82 g/m*3 26.8 C 0 km/h
224 07-06-2014 18:35:00 27.1 C 17.6 g/m*3 27.1 C 0 km/h
225 07-06-2014 18:40:00 26.9 C 17.4 g/m*3 26.9 C 0 km/h
Sensor: Nr:Datum:Temp:Abs-Feuchte:Windchill:Wind:
Aussen-T/F 226 07-06-2014 18:45:00 26.7 C 17.21 g/m*3 26.7 C 0 km/h
227 07-06-2014 18:50:00 26.3 C 17.08 g/m*3 26.3 C 1.6 km/h
228 07-06-2014 18:55:00 25.8 C 16.85 g/m*3 25.8 C 1.6 km/h
229 07-06-2014 19:00:00 25.7 C 17 g/m*3 25.7 C 0 km/h
230 07-06-2014 19:05:00 25.6 C 16.67 g/m*3 25.6 C 0 km/h
231 07-06-2014 19:10:00 25.2 C 16.53 g/m*3 25.2 C 1.6 km/h
232 07-06-2014 19:15:00 24.9 C 16.48 g/m*3 24.9 C 0 km/h
233 07-06-2014 19:20:00 24.6 C 16.21 g/m*3 24.6 C 0 km/h
234 07-06-2014 19:25:00 24.4 C 16.02 g/m*3 24.4 C 0 km/h
235 07-06-2014 19:30:00 24.4 C 16.25 g/m*3 24.4 C 1.6 km/h
236 07-06-2014 19:35:00 24.4 C 16.25 g/m*3 24.4 C 0 km/h
237 07-06-2014 19:40:00 24.7 C 16.3 g/m*3 24.7 C 0 km/h
238 07-06-2014 19:45:00 24.9 C 16.25 g/m*3 24.9 C 0 km/h
239 07-06-2014 19:50:00 25 C 16.34 g/m*3 25 C 1.6 km/h
240 07-06-2014 19:55:00 25 C 16.57 g/m*3 25 C 1.6 km/h
241 07-06-2014 20:00:00 24.9 C 16.02 g/m*3 24.9 C 0 km/h
242 07-06-2014 20:05:00 24.9 C 16.02 g/m*3 24.9 C 0 km/h
243 07-06-2014 20:10:00 24.8 C 15.93 g/m*3 24.8 C 1.6 km/h
244 07-06-2014 20:15:00 24.7 C 15.62 g/m*3 24.7 C 0 km/h
245 07-06-2014 20:20:00 24.6 C 15.75 g/m*3 24.6 C 1.6 km/h
246 07-06-2014 20:25:00 24.4 C 15.58 g/m*3 24.4 C 0 km/h
247 07-06-2014 20:30:00 24.3 C 15.49 g/m*3 24.3 C 0 km/h
248 07-06-2014 20:35:00 24.1 C 15.32 g/m*3 24.1 C 1.6 km/h
249 07-06-2014 20:40:00 23.9 C 15.36 g/m*3 23.9 C 1.6 km/h
250 07-06-2014 20:45:00 23.8 C 15.27 g/m*3 23.8 C 0 km/h
Sensor: Nr:Datum:Temp:Abs-Feuchte:Windchill:Wind:
Aussen-T/F 251 07-06-2014 20:50:00 23.6 C 15.1 g/m*3 23.6 C 0 km/h
252 07-06-2014 20:55:00 23.4 C 15.14 g/m*3 23.4 C 0 km/h
253 07-06-2014 21:00:00 23.2 C 14.97 g/m*3 23.2 C 0 km/h
254 07-06-2014 21:05:00 23.1 C 14.88 g/m*3 23.1 C 0 km/h
255 07-06-2014 21:10:00 23 C 14.8 g/m*3 23 C 1.6 km/h
256 07-06-2014 21:15:00 22.8 C 14.63 g/m*3 22.8 C 1.6 km/h
257 07-06-2014 21:20:00 22.7 C 14.75 g/m*3 22.7 C 1.6 km/h
258 07-06-2014 21:25:00 22.5 C 14.58 g/m*3 22.5 C 1.6 km/h
259 07-06-2014 21:30:00 22.3 C 14.61 g/m*3 22.3 C 1.6 km/h
260 07-06-2014 21:35:00 22.2 C 14.53 g/m*3 22.2 C 1.6 km/h
261 07-06-2014 21:40:00 22 C 14.56 g/m*3 22 C 1.6 km/h
262 07-06-2014 21:45:00 21.9 C 14.47 g/m*3 21.9 C 1.6 km/h
263 07-06-2014 21:50:00 21.8 C 14.39 g/m*3 21.8 C 1.6 km/h
264 07-06-2014 21:55:00 21.8 C 14.39 g/m*3 21.8 C 1.6 km/h
265 07-06-2014 22:00:00 21.7 C 14.31 g/m*3 21.7 C 1.6 km/h
266 07-06-2014 22:05:00 21.6 C 14.22 g/m*3 21.6 C 1.6 km/h
267 07-06-2014 22:10:00 21.6 C 14.22 g/m*3 21.6 C 0 km/h
268 07-06-2014 22:15:00 21.4 C 14.25 g/m*3 21.4 C 0 km/h
269 07-06-2014 22:20:00 21.2 C 14.08 g/m*3 21.2 C 0 km/h
270 07-06-2014 22:25:00 21.1 C 14.19 g/m*3 21.1 C 1.6 km/h
271 07-06-2014 22:30:00 21 C 13.92 g/m*3 21 C 0 km/h
272 07-06-2014 22:35:00 20.9 C 14.02 g/m*3 20.9 C 1.6 km/h
273 07-06-2014 22:40:00 20.9 C 13.84 g/m*3 20.9 C 1.6 km/h
274 07-06-2014 22:45:00 20.9 C 14.02 g/m*3 20.9 C 0 km/h
275 07-06-2014 22:50:00 20.8 C 13.94 g/m*3 20.8 C 1.6 km/h
Sensor: Nr:Datum:Temp:Abs-Feuchte:Windchill:Wind:
Aussen-T/F 276 07-06-2014 22:55:00 20.8 C 13.76 g/m*3 20.8 C 1.6 km/h
277 07-06-2014 23:00:00 20.8 C 13.94 g/m*3 20.8 C 1.6 km/h
278 07-06-2014 23:05:00 20.7 C 13.86 g/m*3 20.7 C 0 km/h
279 07-06-2014 23:10:00 20.7 C 13.86 g/m*3 20.7 C 1.6 km/h
280 07-06-2014 23:15:00 20.6 C 13.78 g/m*3 20.6 C 0 km/h
281 07-06-2014 23:20:00 20.4 C 13.62 g/m*3 20.4 C 0 km/h
282 07-06-2014 23:25:00 20.3 C 13.72 g/m*3 20.3 C 0 km/h
283 07-06-2014 23:30:00 20.1 C 13.73 g/m*3 20.1 C 0 km/h
284 07-06-2014 23:35:00 20 C 13.65 g/m*3 20 C 1.6 km/h
285 07-06-2014 23:40:00 19.9 C 13.74 g/m*3 19.9 C 0 km/h
286 07-06-2014 23:45:00 19.8 C 13.66 g/m*3 19.8 C 0 km/h
287 07-06-2014 23:50:00 19.7 C 13.58 g/m*3 19.7 C 0 km/h
288 07-06-2014 23:55:00 19.6 C 13.51 g/m*3 19.6 C 0 km/h

Legende:
   Min
   Max


Maximal/Minimal-Werte vom 07.06.2014 - 07.06.2014

Sensor Min Max Avg
Temp
(Aussen-T/F)
12 °C
07-06-2014  05:40:00
31.3 °C
07-06-2014  15:25:00
20.77 °C
Abs-Feuchte
(Aussen-T/F)
9.6 g/m*3
07-06-2014  04:50:00
17.82 g/m*3
07-06-2014  18:30:00
12.78 g/m*3
Windchill
(Aussen-T/F)
12 C
07-06-2014  05:40:00
31.3 C
07-06-2014  15:25:00
20.7 C

Die Daten stammen von einer Davis Vantage Pro 2 Wetter-Station und werden unter Linux mit der Software wview2wettercgi und aufbereitet. Alle Angaben erfolgen ohne Gewähr für ihre Vollständigkeit oder Richtigkeit.
Kontakt: Rainer Krienke krienke@uni-koblenz.de . Meine Webseiten an der Uni Koblenz oder privat.
Version: $Revision: 0.78 $